Harrods Creek, Kentucky
Current Conditions -  °F | °C
As of 12:53 PM on Saturday 20 Dec 2014 (Local Time) from KLOU Reporting Station
Overcast Overcast  
Wind Chill: 37°   Ceiling: 1900
Heat Index: 37°   Visibility: 8mi
Dew Point: 27°   Wind: 0mph
Humidity: 67%   Direction: NA
Pressure: 30.28"   Gusts: NA
Location:  38.33°N, 85.63°W
Report Text: KLOU 201753Z 00000KT 8SM BKN019 OVC060 03/M03 A3028 RMK AO2 SLP257 60000 T00281028 10028 21017 58011
Loading
Personal Weather Stations






























Interactive Weather Map New forecast layout! Learn more

10-Day Weather Forecast

Advertisements
Track Severe Weather on mobile